Time;durP1;ratioP1;P1;durP2;ratioP2;P2;SDS_P1;SDS_P2;PMS_P1;PMS_P2;Temp;Humidity;BMP_temperature;BMP_pressure;BME280_temperature;BME280_humidity;BME280_pressure;Samples;Min_cycle;Max_cycle;Signal;HPM_P1;HPM_P2
2021/11/22 00:03:49;;;;;;;10.00;2.83;;;7.00;99.90;;;;;;4992024;28;20125;-88
2021/11/22 00:11:35;;;;;;;9.20;2.60;;;7.00;99.90;;;;;;4952819;29;20046;-88
2021/11/22 00:14:09;;;;;;;13.30;3.03;;;7.00;99.90;;;;;;4936284;29;20119;-88
2021/11/22 00:16:35;;;;;;;11.37;2.30;;;7.00;99.90;;;;;;4972180;28;20121;-87
2021/11/22 00:19:02;;;;;;;7.83;1.90;;;6.90;99.90;;;;;;5025969;28;20508;-88
2021/11/22 00:21:27;;;;;;;8.13;3.17;;;7.00;99.90;;;;;;5033412;28;20028;-88
2021/11/22 00:23:53;;;;;;;9.27;2.30;;;6.90;99.90;;;;;;5031759;28;20500;-87
2021/11/22 00:26:19;;;;;;;13.13;2.93;;;6.90;99.90;;;;;;5031909;28;20437;-87
2021/11/22 00:28:46;;;;;;;7.60;2.00;;;6.90;99.90;;;;;;5048462;28;20083;-87
2021/11/22 00:31:32;;;;;;;7.53;2.10;;;6.90;99.90;;;;;;5011925;28;20124;-87
2021/11/22 00:34:04;;;;;;;7.97;1.90;;;6.90;99.90;;;;;;5047781;28;20029;-87
2021/11/22 00:36:47;;;;;;;11.83;2.23;;;6.90;99.90;;;;;;5029512;28;20029;-87
2021/11/22 00:39:13;;;;;;;11.17;2.60;;;6.90;99.90;;;;;;5048264;28;20493;-88
2021/11/22 00:41:39;;;;;;;10.80;2.33;;;6.80;99.90;;;;;;5031662;28;20044;-87
2021/11/22 00:44:04;;;;;;;7.13;1.87;;;6.90;99.90;;;;;;5050926;28;20029;-87
2021/11/22 00:46:30;;;;;;;8.07;2.50;;;6.80;99.90;;;;;;5035953;28;20116;-87
2021/11/22 00:48:56;;;;;;;9.00;2.27;;;6.80;99.90;;;;;;5034339;28;20473;-87
2021/11/22 00:51:22;;;;;;;7.83;2.60;;;6.80;99.90;;;;;;5052145;28;20056;-87
2021/11/22 00:53:48;;;;;;;10.27;2.47;;;6.80;99.90;;;;;;5049667;28;20163;-87
2021/11/22 00:56:17;;;;;;;9.87;2.67;;;6.80;99.90;;;;;;5048183;28;20075;-88
2021/11/22 00:58:44;;;;;;;6.68;2.40;;;6.70;99.90;;;;;;5048056;28;20029;-87
2021/11/22 01:01:09;;;;;;;8.60;2.33;;;6.70;99.90;;;;;;5047759;28;20104;-88
2021/11/22 01:03:35;;;;;;;9.63;2.67;;;6.70;99.90;;;;;;5047631;28;20120;-88
2021/11/22 01:06:01;;;;;;;10.53;2.97;;;6.80;99.90;;;;;;5014840;28;20079;-87
2021/11/22 01:08:27;;;;;;;6.63;2.70;;;6.80;99.90;;;;;;5032481;28;20505;-87
2021/11/22 01:10:53;;;;;;;9.63;3.90;;;6.80;99.90;;;;;;5047794;28;20029;-87
2021/11/22 01:13:19;;;;;;;7.67;2.63;;;6.80;99.90;;;;;;5031229;28;20474;-87
2021/11/22 01:15:45;;;;;;;9.60;3.10;;;6.90;99.90;;;;;;5047713;28;20079;-87
2021/11/22 01:18:11;;;;;;;8.70;3.00;;;6.80;99.90;;;;;;5047695;28;20470;-88
2021/11/22 01:20:38;;;;;;;9.53;2.93;;;6.90;99.90;;;;;;5047311;28;20029;-87
2021/11/22 01:23:11;;;;;;;11.07;3.20;;;6.80;99.90;;;;;;5047622;28;20022;-88
2021/11/22 01:25:38;;;;;;;9.17;3.47;;;6.90;99.90;;;;;;5047568;28;20029;-87
2021/11/22 01:28:04;;;;;;;9.47;3.83;;;6.90;99.90;;;;;;5047565;28;20120;-87
2021/11/22 01:30:30;;;;;;;10.43;3.77;;;6.90;99.90;;;;;;5047399;28;20112;-87
2021/11/22 01:32:56;;;;;;;12.87;4.30;;;6.90;99.90;;;;;;5031960;28;20457;-87
2021/11/22 01:35:22;;;;;;;10.03;4.57;;;6.90;99.90;;;;;;5047462;28;20026;-87
2021/11/22 01:37:48;;;;;;;10.20;5.00;;;6.90;99.90;;;;;;5030911;28;20041;-87
2021/11/22 01:40:18;;;;;;;10.10;5.27;;;7.00;99.90;;;;;;5047745;28;20537;-87
2021/11/22 01:42:45;;;;;;;12.23;6.00;;;7.00;99.90;;;;;;5047433;28;20075;-87
2021/11/22 01:45:13;;;;;;;12.13;6.23;;;7.00;99.90;;;;;;5047283;28;20129;-87
2021/11/22 01:47:39;;;;;;;13.83;7.03;;;7.00;99.90;;;;;;5030960;28;20033;-88
2021/11/22 01:50:08;;;;;;;12.87;7.43;;;7.00;99.90;;;;;;5047084;28;20034;-88
2021/11/22 01:52:39;;;;;;;14.83;7.83;;;7.00;99.90;;;;;;5046900;28;20040;-88
2021/11/22 01:55:11;;;;;;;12.90;7.35;;;7.00;99.90;;;;;;5047282;28;20029;-87
2021/11/22 01:57:37;;;;;;;14.40;8.43;;;7.00;99.90;;;;;;5047719;28;20105;-87
2021/11/22 02:00:09;;;;;;;16.83;8.33;;;7.00;99.90;;;;;;5046915;28;20462;-87
2021/11/22 02:02:38;;;;;;;15.50;7.90;;;7.00;99.90;;;;;;5047031;28;20494;-87
2021/11/22 02:05:04;;;;;;;13.47;8.40;;;7.10;99.90;;;;;;5031616;28;20076;-87
2021/11/22 02:07:30;;;;;;;12.73;7.90;;;7.10;99.90;;;;;;5051200;28;20025;-87
2021/11/22 02:09:56;;;;;;;13.13;8.60;;;7.10;99.90;;;;;;5035636;28;20447;-86
2021/11/22 02:12:21;;;;;;;15.40;8.90;;;7.10;99.90;;;;;;5034494;28;20038;-86
2021/11/22 02:14:47;;;;;;;18.47;10.03;;;7.10;99.90;;;;;;5050972;28;20409;-86
2021/11/22 02:17:13;;;;;;;16.10;9.07;;;7.10;99.90;;;;;;5051017;28;20025;-85
2021/11/22 02:19:51;;;;;;;17.83;9.80;;;7.10;99.90;;;;;;5050523;28;20128;-86
2021/11/22 02:22:17;;;;;;;14.13;7.93;;;7.10;99.90;;;;;;5050869;28;20116;-86
2021/11/22 02:24:42;;;;;;;11.37;7.03;;;7.10;99.90;;;;;;5050835;28;20052;-86
2021/11/22 02:27:08;;;;;;;12.77;7.20;;;7.10;99.90;;;;;;5035358;28;20080;-86
2021/11/22 02:29:34;;;;;;;13.83;8.00;;;7.20;99.90;;;;;;5050374;28;20044;-86
2021/11/22 02:32:00;;;;;;;13.93;7.90;;;7.20;99.90;;;;;;5050738;28;20045;-86
2021/11/22 02:34:26;;;;;;;13.23;7.50;;;7.20;99.90;;;;;;5050574;28;20061;-86
2021/11/22 02:36:52;;;;;;;12.20;7.67;;;7.20;99.90;;;;;;5017524;28;20029;-86
2021/11/22 02:39:18;;;;;;;12.77;7.30;;;7.20;99.90;;;;;;5050195;28;20044;-86
2021/11/22 02:41:44;;;;;;;12.77;7.53;;;7.30;99.90;;;;;;5050584;28;20062;-86
2021/11/22 02:44:10;;;;;;;12.20;6.97;;;7.30;99.90;;;;;;5050501;28;20079;-86
2021/11/22 02:46:36;;;;;;;10.30;6.87;;;7.30;99.90;;;;;;5050211;28;20037;-86
2021/11/22 02:49:02;;;;;;;10.90;6.50;;;7.30;99.90;;;;;;5050157;28;20037;-86
2021/11/22 02:51:27;;;;;;;14.93;7.03;;;7.30;99.90;;;;;;5050342;28;20029;-86
2021/11/22 02:53:58;;;;;;;12.57;7.37;;;7.30;99.90;;;;;;5050381;28;20485;-86
2021/11/22 02:56:29;;;;;;;12.13;7.57;;;7.30;99.90;;;;;;5050152;28;20068;-86
2021/11/22 02:58:56;;;;;;;9.97;6.63;;;7.40;99.90;;;;;;5050016;28;20040;-85
2021/11/22 03:01:22;;;;;;;11.30;7.13;;;7.40;99.90;;;;;;5050151;28;20030;-86
2021/11/22 03:03:47;;;;;;;9.33;6.73;;;7.40;99.90;;;;;;5050263;28;20441;-85
2021/11/22 03:06:16;;;;;;;12.63;6.73;;;7.40;99.90;;;;;;5033646;28;20535;-86
2021/11/22 03:08:44;;;;;;;11.70;7.30;;;7.40;99.90;;;;;;5016753;28;20071;-86
2021/11/22 03:11:10;;;;;;;12.33;7.40;;;7.40;99.90;;;;;;5049993;28;20271;-86
2021/11/22 03:13:37;;;;;;;11.90;7.07;;;7.40;99.90;;;;;;5049943;28;20065;-85
2021/11/22 03:16:03;;;;;;;10.73;7.07;;;7.40;99.90;;;;;;5021307;28;20060;-86
2021/11/22 03:18:29;;;;;;;13.57;8.10;;;7.40;99.90;;;;;;5054199;28;20060;-86
2021/11/22 03:20:56;;;;;;;16.17;9.30;;;7.50;99.90;;;;;;5068694;28;20029;-86
2021/11/22 03:23:22;;;;;;;18.00;9.70;;;7.50;99.90;;;;;;5069973;28;20025;-85
2021/11/22 03:25:48;;;;;;;15.47;10.00;;;7.40;99.90;;;;;;5069395;28;20033;-86
2021/11/22 03:28:16;;;;;;;15.70;9.33;;;7.40;99.90;;;;;;5067971;28;20061;-85
2021/11/22 03:30:42;;;;;;;15.80;9.70;;;7.50;99.90;;;;;;5051766;28;20029;-85
2021/11/22 03:33:08;;;;;;;15.50;8.83;;;7.50;99.90;;;;;;5033186;28;20026;-86
2021/11/22 03:35:34;;;;;;;13.43;9.33;;;7.50;99.90;;;;;;5050399;28;20032;-86
2021/11/22 03:38:00;;;;;;;14.47;8.87;;;7.50;99.90;;;;;;5049715;28;20397;-86
2021/11/22 03:40:27;;;;;;;14.20;8.63;;;7.50;99.90;;;;;;5050159;28;20034;-86
2021/11/22 03:43:37;;;;;;;14.00;9.40;;;7.50;99.90;;;;;;5033233;28;20080;-86
2021/11/22 03:45:44;;;;;;;12.27;8.70;;;7.50;99.90;;;;;;5041758;28;20126;-86
2021/11/22 03:48:11;;;;;;;12.75;8.40;;;7.50;99.90;;;;;;5064194;28;20033;-87
2021/11/22 03:50:37;;;;;;;12.63;8.33;;;7.50;99.90;;;;;;5071025;28;20065;-86
2021/11/22 03:53:03;;;;;;;14.30;8.40;;;7.50;99.90;;;;;;5072268;28;20055;-86
2021/11/22 03:55:29;;;;;;;16.33;9.03;;;7.50;99.90;;;;;;5055595;28;20061;-86
2021/11/22 03:57:55;;;;;;;12.13;8.27;;;7.50;99.90;;;;;;5056470;28;20140;-87
2021/11/22 04:00:22;;;;;;;11.57;7.93;;;7.50;99.90;;;;;;5066785;28;20242;-85
2021/11/22 04:02:48;;;;;;;10.43;7.30;;;7.50;99.90;;;;;;5049950;28;20053;-85
2021/11/22 04:05:13;;;;;;;11.03;7.23;;;7.50;99.90;;;;;;5049210;28;20434;-86
2021/11/22 04:07:39;;;;;;;10.93;7.37;;;7.60;99.90;;;;;;5049008;28;20109;-86
2021/11/22 04:10:05;;;;;;;11.43;7.80;;;7.60;99.90;;;;;;5048842;28;20030;-86
2021/11/22 04:12:31;;;;;;;11.33;6.97;;;7.50;99.90;;;;;;5048782;28;20060;-86
2021/11/22 04:14:57;;;;;;;9.13;7.07;;;7.50;99.90;;;;;;5048559;28;20045;-86
2021/11/22 04:17:23;;;;;;;10.40;6.60;;;7.60;99.90;;;;;;5048766;28;20029;-86
2021/11/22 04:19:49;;;;;;;9.20;7.20;;;7.50;99.90;;;;;;5048300;28;20036;-86
2021/11/22 04:22:15;;;;;;;10.87;7.50;;;7.50;99.90;;;;;;5015418;28;20030;-86
2021/11/22 04:24:41;;;;;;;8.80;7.07;;;7.50;99.90;;;;;;5048512;28;20034;-85
2021/11/22 04:27:10;;;;;;;9.63;6.60;;;7.50;99.90;;;;;;5048287;28;20052;-86
2021/11/22 04:29:36;;;;;;;9.67;6.17;;;7.50;99.90;;;;;;5047670;28;20033;-87
2021/11/22 04:32:02;;;;;;;7.67;6.20;;;7.50;99.90;;;;;;5048260;28;20030;-86
2021/11/22 04:34:28;;;;;;;8.37;5.67;;;7.50;99.90;;;;;;5033081;28;20041;-87
2021/11/22 04:36:54;;;;;;;6.13;4.90;;;7.50;99.90;;;;;;5032182;28;20034;-86
2021/11/22 04:39:19;;;;;;;7.63;5.30;;;7.50;99.90;;;;;;5048039;28;20033;-86
2021/11/22 04:41:47;;;;;;;6.57;5.00;;;7.50;99.90;;;;;;5048186;28;20059;-86
2021/11/22 04:44:13;;;;;;;8.43;5.40;;;7.50;99.90;;;;;;5048168;28;20430;-86
2021/11/22 04:46:39;;;;;;;6.60;5.03;;;7.50;99.90;;;;;;5048096;28;20048;-86
2021/11/22 04:49:05;;;;;;;7.50;5.27;;;7.50;99.90;;;;;;5031408;28;20489;-86
2021/11/22 04:51:30;;;;;;;5.97;4.60;;;7.50;99.90;;;;;;5048139;28;20544;-86
2021/11/22 04:53:56;;;;;;;7.57;5.17;;;7.50;99.90;;;;;;5048156;28;20037;-86
2021/11/22 04:56:22;;;;;;;5.97;4.90;;;7.50;99.90;;;;;;5047976;28;20064;-86
2021/11/22 04:58:48;;;;;;;6.70;4.93;;;7.50;99.90;;;;;;5047685;28;20029;-87
2021/11/22 05:01:14;;;;;;;7.33;4.80;;;7.50;99.90;;;;;;5032579;28;20112;-86
2021/11/22 05:03:40;;;;;;;6.80;5.10;;;7.50;99.90;;;;;;5047976;28;20424;-86
2021/11/22 05:06:06;;;;;;;6.50;4.73;;;7.50;99.90;;;;;;5048055;28;20022;-87
2021/11/22 05:08:31;;;;;;;7.87;5.17;;;7.40;99.90;;;;;;5047779;28;20596;-86
2021/11/22 05:10:57;;;;;;;7.57;5.53;;;7.40;99.90;;;;;;5048004;28;20500;-87
2021/11/22 05:13:23;;;;;;;6.77;5.27;;;7.40;99.90;;;;;;5047751;28;20035;-86
2021/11/22 05:15:49;;;;;;;6.70;4.83;;;7.30;99.90;;;;;;5047936;28;20044;-87
2021/11/22 05:18:15;;;;;;;5.77;4.87;;;7.30;99.90;;;;;;5047847;28;20544;-87
2021/11/22 05:20:43;;;;;;;6.27;4.97;;;7.30;99.90;;;;;;5031172;28;20029;-87
2021/11/22 05:23:10;;;;;;;6.80;4.90;;;7.30;99.90;;;;;;5047872;28;20026;-87
2021/11/22 05:25:36;;;;;;;6.07;4.60;;;7.30;99.90;;;;;;5047969;28;20033;-87
2021/11/22 05:28:03;;;;;;;6.77;4.73;;;7.30;99.90;;;;;;5048232;28;20477;-86
2021/11/22 05:30:29;;;;;;;7.87;4.50;;;7.20;99.90;;;;;;5048084;28;20481;-86
2021/11/22 05:33:01;;;;;;;8.30;5.10;;;7.30;99.90;;;;;;5047589;28;20072;-86
2021/11/22 05:35:28;;;;;;;6.77;4.87;;;7.20;99.90;;;;;;5047729;28;20032;-86
2021/11/22 05:37:54;;;;;;;7.47;4.90;;;7.20;99.90;;;;;;5031068;28;20029;-87
2021/11/22 05:40:21;;;;;;;6.97;4.60;;;7.20;99.90;;;;;;5049239;28;20029;-87
2021/11/22 05:42:46;;;;;;;12.27;5.80;;;7.20;99.90;;;;;;5034958;28;20025;-86
2021/11/22 05:45:13;;;;;;;7.47;5.70;;;7.10;99.90;;;;;;5051806;28;20354;-86
2021/11/22 05:47:38;;;;;;;7.90;5.83;;;7.10;99.90;;;;;;5051860;28;20490;-86
2021/11/22 05:50:06;;;;;;;9.53;6.60;;;7.10;99.90;;;;;;5051226;28;20038;-86
2021/11/22 05:52:34;;;;;;;9.70;6.40;;;7.10;99.90;;;;;;5036161;28;20033;-87
2021/11/22 05:55:05;;;;;;;11.27;6.23;;;7.10;99.90;;;;;;5034573;28;20124;-86
2021/11/22 05:57:31;;;;;;;11.20;6.23;;;7.10;99.90;;;;;;5018225;28;20056;-87
2021/11/22 05:59:57;;;;;;;11.53;6.37;;;7.00;99.90;;;;;;5034268;28;20131;-87
2021/11/22 06:02:22;;;;;;;7.80;5.47;;;7.00;99.90;;;;;;5051244;28;20444;-87
2021/11/22 06:04:48;;;;;;;9.63;5.73;;;7.00;99.90;;;;;;5051314;28;20048;-86
2021/11/22 06:26:32;;;;;;;9.60;6.80;;;6.80;99.90;;;;;;5035914;28;20036;-86
2021/11/22 06:28:58;;;;;;;9.50;6.80;;;6.80;99.90;;;;;;5050445;28;20430;-87
2021/11/22 06:31:24;;;;;;;8.50;6.37;;;6.70;99.90;;;;;;5050352;28;20083;-86
2021/11/22 06:33:49;;;;;;;10.33;7.00;;;6.80;99.90;;;;;;5050817;28;20026;-87
2021/11/22 06:36:15;;;;;;;12.57;7.53;;;6.70;99.90;;;;;;5050974;28;20021;-86
2021/11/22 06:38:42;;;;;;;10.83;7.10;;;6.80;99.90;;;;;;5033827;28;20048;-86
2021/11/22 06:41:08;;;;;;;9.53;7.20;;;6.80;99.90;;;;;;5050400;28;20030;-86
2021/11/22 06:43:34;;;;;;;11.00;7.13;;;6.80;99.90;;;;;;5050432;28;20033;-86
2021/11/22 06:45:59;;;;;;;12.90;7.17;;;6.80;99.90;;;;;;5033741;28;20029;-87
2021/11/22 06:48:25;;;;;;;11.07;8.00;;;6.80;99.90;;;;;;5050353;28;20029;-87
2021/11/22 06:50:51;;;;;;;12.30;7.50;;;6.80;99.90;;;;;;5050165;28;20042;-86
2021/11/22 06:53:21;;;;;;;12.17;8.27;;;6.80;99.90;;;;;;5050426;28;20082;-86
2021/11/22 06:55:48;;;;;;;10.80;7.53;;;6.80;99.90;;;;;;5050059;28;20394;-86
2021/11/22 06:58:14;;;;;;;10.43;7.17;;;6.70;99.90;;;;;;5033308;28;20486;-86
2021/11/22 07:00:40;;;;;;;12.37;7.60;;;6.70;99.90;;;;;;5049869;28;20617;-86
2021/11/22 07:03:06;;;;;;;12.93;7.37;;;6.70;99.90;;;;;;5050252;28;20025;-86
2021/11/22 07:05:32;;;;;;;10.10;7.10;;;6.70;99.90;;;;;;5050120;28;20405;-86
2021/11/22 07:07:58;;;;;;;12.83;7.10;;;6.70;99.90;;;;;;5050258;28;20029;-86
2021/11/22 07:10:24;;;;;;;9.93;6.83;;;6.70;99.90;;;;;;5016664;28;20535;-86
2021/11/22 07:12:51;;;;;;;10.30;6.87;;;6.70;99.90;;;;;;5050159;28;20033;-87
2021/11/22 07:15:20;;;;;;;10.27;6.40;;;6.70;99.90;;;;;;5033397;28;20029;-87
2021/11/22 07:17:50;;;;;;;;;;;6.70;99.90;;;;;;5050446;28;20033;-87
2021/11/22 07:20:16;;;;;;;10.20;6.07;;;6.70;99.90;;;;;;5016648;28;19982;-86
2021/11/22 07:22:42;;;;;;;9.37;5.80;;;6.70;99.90;;;;;;5049706;28;20053;-87
2021/11/22 07:25:08;;;;;;;10.97;5.87;;;6.60;99.90;;;;;;5049631;28;20088;-86
2021/11/22 07:27:34;;;;;;;9.97;5.93;;;6.60;99.90;;;;;;5049642;28;20025;-86
2021/11/22 07:30:00;;;;;;;9.83;5.83;;;6.60;99.90;;;;;;5034800;28;20042;-86
2021/11/22 07:32:27;;;;;;;8.03;5.47;;;6.60;99.90;;;;;;5053978;28;20034;-86
2021/11/22 07:34:56;;;;;;;7.93;5.93;;;6.60;99.90;;;;;;5020933;28;20397;-86
2021/11/22 07:37:23;;;;;;;11.13;6.83;;;6.70;99.90;;;;;;5054971;28;20405;-86
2021/11/22 07:39:49;;;;;;;10.57;6.80;;;6.60;99.90;;;;;;5055889;28;20034;-87
2021/11/22 07:42:15;;;;;;;11.63;7.77;;;6.70;99.90;;;;;;5054004;28;20028;-87
2021/11/22 07:44:41;;;;;;;11.50;8.33;;;6.70;99.90;;;;;;5034727;28;20386;-86
2021/11/22 07:47:08;;;;;;;10.73;7.93;;;6.70;99.90;;;;;;5049652;28;20029;-86
2021/11/22 07:49:34;;;;;;;11.67;7.60;;;6.70;99.90;;;;;;5015441;28;20052;-86
2021/11/22 07:52:00;;;;;;;10.77;7.77;;;6.70;99.90;;;;;;5049130;28;20490;-86
2021/11/22 07:54:26;;;;;;;10.93;7.70;;;6.70;99.90;;;;;;5048984;28;20037;-87
2021/11/22 07:56:59;;;;;;;12.03;8.23;;;6.70;99.90;;;;;;5048824;28;20034;-87
2021/11/22 07:59:26;;;;;;;12.97;8.70;;;6.70;99.90;;;;;;5048553;28;20033;-83
2021/11/22 08:01:51;;;;;;;11.90;8.77;;;6.60;99.90;;;;;;5050179;28;20024;-87
2021/11/22 08:04:18;;;;;;;15.30;9.50;;;6.60;99.90;;;;;;5049408;28;20025;-86
2021/11/22 08:06:47;;;;;;;15.20;9.97;;;6.70;99.90;;;;;;5049305;28;20076;-85
2021/11/22 08:09:28;;;;;;;14.67;8.87;;;6.70;99.90;;;;;;5049773;28;20493;-83
2021/11/22 08:14:29;;;;;;;10.63;7.60;;;6.70;99.90;;;;;;5050671;28;20055;-84
2021/11/22 08:16:55;;;;;;;12.30;6.70;;;6.70;99.90;;;;;;5050466;28;20030;-83
2021/11/22 08:19:21;;;;;;;11.63;6.90;;;6.70;99.90;;;;;;5049985;28;20489;-84
2021/11/22 08:21:47;;;;;;;10.80;6.90;;;6.70;99.90;;;;;;5033867;28;20032;-84
2021/11/22 08:24:13;;;;;;;9.63;6.90;;;6.70;99.90;;;;;;5033931;28;20029;-83
2021/11/22 08:26:38;;;;;;;9.57;6.53;;;6.70;99.90;;;;;;5035632;28;20519;-84
2021/11/22 08:29:04;;;;;;;11.40;7.00;;;6.70;99.90;;;;;;5033316;28;20064;-84
2021/11/22 08:31:33;;;;;;;8.57;6.72;;;6.70;99.90;;;;;;5017668;28;20031;-84
2021/11/22 08:33:59;;;;;;;9.57;7.10;;;6.70;99.90;;;;;;5051054;28;20392;-84
2021/11/22 08:36:25;;;;;;;9.53;7.23;;;6.70;99.90;;;;;;5050700;28;20038;-84
2021/11/22 08:38:52;;;;;;;9.47;6.70;;;6.70;99.90;;;;;;5050206;28;20068;-84
2021/11/22 08:41:19;;;;;;;10.97;7.17;;;6.80;99.90;;;;;;5050555;28;20025;-84
2021/11/22 08:43:45;;;;;;;11.50;7.23;;;6.80;99.90;;;;;;5035110;28;20025;-85
2021/11/22 08:46:10;;;;;;;10.10;6.60;;;6.80;99.90;;;;;;5050948;28;20508;-84
2021/11/22 08:48:36;;;;;;;9.63;7.00;;;6.80;99.90;;;;;;5051457;28;20036;-84
2021/11/22 08:51:04;;;;;;;9.03;5.80;;;6.80;99.90;;;;;;5049850;28;20030;-84
2021/11/22 08:53:31;;;;;;;10.97;6.23;;;6.80;99.90;;;;;;5049903;28;20044;-85
2021/11/22 08:55:57;;;;;;;10.03;6.87;;;6.80;99.90;;;;;;5050822;28;20493;-84
2021/11/22 08:58:23;;;;;;;9.63;6.80;;;6.80;99.90;;;;;;5050488;28;20031;-84
2021/11/22 09:00:50;;;;;;;10.67;6.30;;;6.70;99.90;;;;;;5049557;28;20025;-85
2021/11/22 09:03:16;;;;;;;13.97;6.97;;;6.60;99.90;;;;;;5050462;28;20022;-84
2021/11/22 09:05:42;;;;;;;11.90;7.53;;;6.70;99.90;;;;;;5050279;28;20091;-84
2021/11/22 09:08:08;;;;;;;10.27;6.77;;;6.70;99.90;;;;;;5033718;28;20048;-85
2021/11/22 09:10:34;;;;;;;9.33;6.67;;;6.80;99.90;;;;;;5030817;28;20064;-85
2021/11/22 09:13:00;;;;;;;10.50;6.87;;;6.80;99.90;;;;;;5033017;28;20025;-86
2021/11/22 09:15:26;;;;;;;9.53;6.90;;;6.80;99.90;;;;;;5015723;28;20017;-85
2021/11/22 09:17:52;;;;;;;11.20;6.77;;;6.80;99.90;;;;;;5048210;28;20524;-85
2021/11/22 09:20:18;;;;;;;11.43;6.77;;;6.80;99.90;;;;;;5048480;28;20036;-85
2021/11/22 09:22:44;;;;;;;11.30;6.80;;;6.80;99.90;;;;;;5048594;28;20025;-84
2021/11/22 09:25:11;;;;;;;9.83;6.87;;;6.80;99.90;;;;;;5050699;28;20032;-85
2021/11/22 09:27:37;;;;;;;10.73;7.00;;;6.80;99.90;;;;;;5049460;28;20490;-87
2021/11/22 09:30:06;;;;;;;10.23;7.50;;;6.80;99.90;;;;;;5048869;28;20087;-85
2021/11/22 09:32:32;;;;;;;14.73;8.02;;;6.80;99.90;;;;;;5033383;28;20058;-86
2021/11/22 09:34:57;;;;;;;11.40;7.53;;;6.70;99.90;;;;;;5049626;28;20041;-86
2021/11/22 09:37:23;;;;;;;12.13;8.20;;;6.70;99.90;;;;;;5048661;28;20045;-86
2021/11/22 09:39:49;;;;;;;13.33;8.70;;;6.70;99.90;;;;;;5053504;28;20037;-84
2021/11/22 09:42:16;;;;;;;15.83;9.37;;;6.70;99.90;;;;;;5055048;28;20033;-85
2021/11/22 09:44:42;;;;;;;15.03;9.33;;;6.70;99.90;;;;;;5055206;28;20040;-86
2021/11/22 09:47:08;;;;;;;13.17;9.40;;;6.70;99.90;;;;;;5054699;28;20395;-86
2021/11/22 09:49:34;;;;;;;13.83;9.27;;;6.70;99.90;;;;;;5053445;28;20025;-85
2021/11/22 09:51:59;;;;;;;14.00;8.73;;;6.70;99.90;;;;;;5034937;28;20044;-86
2021/11/22 09:54:26;;;;;;;14.57;9.70;;;6.70;99.90;;;;;;5052806;28;20029;-85
2021/11/22 09:56:52;;;;;;;14.20;8.90;;;6.70;99.90;;;;;;5050377;28;20486;-84
2021/11/22 09:59:20;;;;;;;12.60;8.13;;;6.80;99.90;;;;;;5049557;28;20033;-86
2021/11/22 10:01:53;;;;;;;11.77;7.93;;;6.70;99.90;;;;;;5051216;28;20026;-85
2021/11/22 10:04:21;;;;;;;14.40;7.87;;;6.80;99.90;;;;;;5049048;28;20030;-86
2021/11/22 10:06:48;;;;;;;10.93;7.47;;;6.90;99.90;;;;;;5048342;28;20056;-86
2021/11/22 10:09:35;;;;;;;11.07;7.80;;;7.00;99.90;;;;;;5045209;28;20515;-85
2021/11/22 10:12:23;;;;;;;11.03;7.10;;;7.00;99.90;;;;;;5030777;28;20038;-86
2021/11/22 10:14:57;;;;;;;14.17;7.60;;;7.10;99.90;;;;;;5030478;28;20033;-86
2021/11/22 10:17:27;;;;;;;10.60;6.63;;;7.20;99.90;;;;;;5046958;28;20041;-86
2021/11/22 10:20:10;;;;;;;9.47;6.43;;;7.20;99.90;;;;;;5047489;28;20120;-85
2021/11/22 10:23:02;;;;;;;11.50;6.80;;;7.30;99.90;;;;;;5051109;28;20033;-85
2021/11/22 10:25:30;;;;;;;10.70;6.63;;;7.20;99.90;;;;;;5052343;28;20117;-84
2021/11/22 10:28:03;;;;;;;13.27;6.87;;;7.20;99.90;;;;;;5056598;28;20076;-84
2021/11/22 10:30:31;;;;;;;10.57;5.90;;;7.10;99.90;;;;;;5055768;28;20100;-84
2021/11/22 10:32:59;;;;;;;11.77;5.57;;;7.20;99.90;;;;;;5057015;28;20034;-84
2021/11/22 10:35:27;;;;;;;9.40;6.10;;;7.20;99.90;;;;;;5057143;28;20493;-84
2021/11/22 10:37:59;;;;;;;8.93;5.77;;;7.20;99.90;;;;;;5056835;28;20033;-84
2021/11/22 10:40:27;;;;;;;12.60;6.87;;;7.10;99.90;;;;;;5056455;28;20041;-84
2021/11/22 10:42:53;;;;;;;8.00;5.43;;;7.10;99.90;;;;;;5057316;28;20456;-85
2021/11/22 10:45:28;;;;;;;8.43;5.53;;;7.10;99.90;;;;;;5055780;28;20064;-84
2021/11/22 10:47:56;;;;;;;7.87;5.37;;;7.10;99.90;;;;;;5056136;28;20026;-84
2021/11/22 10:50:25;;;;;;;8.63;5.80;;;7.20;99.90;;;;;;5054898;28;20083;-84
2021/11/22 10:52:50;;;;;;;11.85;5.63;;;7.20;99.90;;;;;;5054289;28;20026;-84
2021/11/22 10:55:16;;;;;;;8.40;4.93;;;7.20;99.90;;;;;;5053556;28;20034;-84
2021/11/22 10:57:46;;;;;;;9.47;5.30;;;7.20;99.90;;;;;;5053583;28;20033;-84
2021/11/22 11:00:18;;;;;;;6.07;3.97;;;7.20;99.90;;;;;;5053491;28;20394;-85
2021/11/22 11:02:44;;;;;;;9.63;5.00;;;7.20;99.90;;;;;;5055450;28;20060;-84
2021/11/22 11:05:30;;;;;;;9.87;4.53;;;7.20;99.90;;;;;;5054440;28;20492;-85
2021/11/22 11:08:04;;;;;;;7.70;4.33;;;7.30;99.90;;;;;;5039218;28;20402;-86
2021/11/22 11:10:32;;;;;;;7.07;3.97;;;7.20;99.90;;;;;;5048850;28;20045;-85
2021/11/22 11:12:59;;;;;;;6.17;3.73;;;7.20;99.90;;;;;;5050466;28;20029;-85
2021/11/22 11:15:25;;;;;;;4.87;3.27;;;7.20;99.90;;;;;;5044848;28;21128;-86
2021/11/22 11:17:51;;;;;;;6.37;3.00;;;7.20;99.90;;;;;;5047318;28;20627;-85
2021/11/22 11:20:19;;;;;;;6.23;3.30;;;7.30;99.90;;;;;;5017948;28;20040;-84
2021/11/22 11:22:47;;;;;;;7.80;3.83;;;7.20;99.90;;;;;;5013850;28;20422;-83
2021/11/22 11:25:14;;;;;;;7.30;3.40;;;7.20;99.90;;;;;;5033648;28;20067;-84
2021/11/22 11:27:43;;;;;;;6.23;3.17;;;7.30;99.90;;;;;;5018138;28;20030;-84
2021/11/22 11:30:20;;;;;;;6.00;3.25;;;7.30;99.90;;;;;;5017698;28;20060;-84
2021/11/22 11:32:47;;;;;;;5.50;2.90;;;7.30;99.90;;;;;;5020403;28;20389;-84
2021/11/22 11:35:18;;;;;;;5.50;2.77;;;7.40;99.90;;;;;;5021858;28;20106;-85
2021/11/22 11:38:05;;;;;;;5.03;2.60;;;7.50;99.90;;;;;;5020403;28;20684;-84
2021/11/22 11:40:35;;;;;;;4.10;2.40;;;7.50;99.90;;;;;;5019048;28;20481;-84
2021/11/22 11:43:24;;;;;;;4.30;2.23;;;7.50;99.90;;;;;;5019469;28;20151;-84
2021/11/22 11:45:56;;;;;;;4.30;2.10;;;7.50;99.90;;;;;;5019050;28;20029;-83
2021/11/22 11:48:54;;;;;;;3.57;1.77;;;7.60;99.90;;;;;;5019534;28;20037;-84
2021/11/22 11:51:27;;;;;;;5.40;2.20;;;7.60;99.90;;;;;;5018579;28;20144;-84
2021/11/22 11:54:22;;;;;;;3.37;1.87;;;7.60;99.90;;;;;;5019173;28;20112;-84
2021/11/22 11:56:54;;;;;;;4.17;1.53;;;7.70;99.90;;;;;;5017922;28;20026;-83
2021/11/22 11:59:22;;;;;;;2.97;1.37;;;7.60;99.90;;;;;;5019134;28;20506;-86
2021/11/22 12:02:04;;;;;;;3.33;1.30;;;7.70;99.90;;;;;;5023111;28;20037;-83
2021/11/22 12:05:04;;;;;;;2.93;1.30;;;7.80;99.90;;;;;;5063833;28;20064;-83
2021/11/22 12:07:44;;;;;;;2.50;1.07;;;7.90;99.90;;;;;;5032279;28;20041;-86
2021/11/22 12:10:18;;;;;;;2.47;1.00;;;7.90;99.90;;;;;;5030487;28;20064;-87
2021/11/22 12:13:09;;;;;;;7.63;1.10;;;7.90;99.90;;;;;;5022148;28;20037;-87
2021/11/22 12:15:36;;;;;;;3.27;1.10;;;7.90;99.90;;;;;;5052258;28;20033;-87
2021/11/22 12:18:06;;;;;;;2.53;1.00;;;7.90;99.90;;;;;;5018823;28;20157;-87
2021/11/22 12:20:35;;;;;;;2.93;1.30;;;7.90;99.90;;;;;;5018593;28;20029;-87
2021/11/22 12:23:17;;;;;;;4.15;1.45;;;7.80;99.80;;;;;;5017377;28;20060;-86
2021/11/22 12:25:46;;;;;;;3.17;0.90;;;7.90;99.70;;;;;;5018102;28;20120;-87
2021/11/22 12:28:18;;;;;;;2.77;1.10;;;7.90;99.60;;;;;;5019134;28;20030;-87
2021/11/22 12:30:49;;;;;;;3.50;1.20;;;7.90;99.60;;;;;;5019987;28;20045;-87
2021/11/22 12:33:21;;;;;;;2.77;0.97;;;7.90;99.40;;;;;;5026025;28;20036;-87
2021/11/22 12:35:49;;;;;;;3.03;1.03;;;7.90;99.50;;;;;;5022791;28;20087;-87
2021/11/22 12:38:20;;;;;;;2.70;1.30;;;7.90;99.10;;;;;;5023209;28;20025;-85
2021/11/22 12:40:47;;;;;;;2.07;1.00;;;7.90;99.00;;;;;;5025177;28;20042;-85
2021/11/22 12:43:14;;;;;;;2.07;0.87;;;7.90;99.00;;;;;;5020739;28;20029;-85
2021/11/22 12:45:58;;;;;;;2.67;1.00;;;7.90;98.80;;;;;;5051697;28;20086;-84
2021/11/22 12:48:32;;;;;;;2.10;1.10;;;8.00;98.40;;;;;;5047219;28;20029;-88
2021/11/22 12:51:01;;;;;;;4.80;1.20;;;7.90;98.80;;;;;;5013929;28;20037;-84
2021/11/22 12:53:28;;;;;;;3.30;1.10;;;7.90;98.30;;;;;;5048170;28;20034;-84
2021/11/22 12:55:55;;;;;;;3.43;1.13;;;7.90;98.50;;;;;;5016699;28;20030;-85
2021/11/22 12:58:29;;;;;;;2.50;1.00;;;8.00;98.20;;;;;;5033368;28;20032;-85
2021/11/22 13:01:01;;;;;;;3.23;0.90;;;8.00;97.70;;;;;;5014564;28;20068;-85
2021/11/22 13:03:29;;;;;;;3.50;1.30;;;7.90;97.70;;;;;;5016917;28;20108;-85
2021/11/22 13:06:07;;;;;;;2.63;1.20;;;8.00;97.90;;;;;;5018383;28;20034;-85
2021/11/22 13:08:32;;;;;;;2.90;0.83;;;8.00;98.00;;;;;;5033516;28;20108;-85
2021/11/22 13:11:01;;;;;;;3.73;1.17;;;8.00;97.00;;;;;;5015479;28;20163;-85
2021/11/22 13:16:11;;;;;;;4.33;1.10;;;8.00;97.70;;;;;;5022849;28;20251;-85
2021/11/22 13:18:41;;;;;;;2.43;1.00;;;8.00;97.70;;;;;;5026368;28;20096;-85
2021/11/22 13:21:13;;;;;;;2.40;0.90;;;8.00;98.00;;;;;;5024978;28;20041;-85
2021/11/22 13:23:40;;;;;;;3.57;1.10;;;8.00;97.30;;;;;;5025954;28;20026;-85
2021/11/22 13:26:21;;;;;;;3.10;0.97;;;8.10;97.10;;;;;;5024970;28;20490;-85
2021/11/22 13:28:50;;;;;;;3.60;1.10;;;8.10;96.80;;;;;;5042145;28;20037;-85
2021/11/22 13:31:17;;;;;;;2.90;1.30;;;8.10;97.10;;;;;;5023788;28;20053;-85